sensor_id;sensor_type;location;lat;lon;timestamp;P1;durP1;ratioP1;P2;durP2;ratioP2
4198;SDS011;2113;50.946;14.610;2023-05-07T00:01:15;22.23;;;12.45;;
4198;SDS011;2113;50.946;14.610;2023-05-07T00:03:45;25.02;;;13.13;;
4198;SDS011;2113;50.946;14.610;2023-05-07T00:06:14;22.77;;;12.48;;
4198;SDS011;2113;50.946;14.610;2023-05-07T00:08:44;23.80;;;13.95;;
4198;SDS011;2113;50.946;14.610;2023-05-07T00:11:12;24.50;;;12.85;;
4198;SDS011;2113;50.946;14.610;2023-05-07T00:13:40;23.17;;;13.43;;
4198;SDS011;2113;50.946;14.610;2023-05-07T00:16:08;25.50;;;14.02;;
4198;SDS011;2113;50.946;14.610;2023-05-07T00:18:36;26.20;;;13.45;;
4198;SDS011;2113;50.946;14.610;2023-05-07T00:21:05;23.15;;;13.73;;
4198;SDS011;2113;50.946;14.610;2023-05-07T00:23:33;23.92;;;14.27;;
4198;SDS011;2113;50.946;14.610;2023-05-07T00:26:02;29.85;;;16.17;;
4198;SDS011;2113;50.946;14.610;2023-05-07T00:28:31;22.80;;;13.13;;
4198;SDS011;2113;50.946;14.610;2023-05-07T00:30:59;26.33;;;14.18;;
4198;SDS011;2113;50.946;14.610;2023-05-07T00:33:27;27.70;;;15.18;;
4198;SDS011;2113;50.946;14.610;2023-05-07T00:35:55;27.10;;;13.80;;
4198;SDS011;2113;50.946;14.610;2023-05-07T00:38:23;30.52;;;14.65;;
4198;SDS011;2113;50.946;14.610;2023-05-07T00:40:52;34.40;;;13.20;;
4198;SDS011;2113;50.946;14.610;2023-05-07T00:43:21;36.20;;;11.50;;
4198;SDS011;2113;50.946;14.610;2023-05-07T00:45:50;36.33;;;13.70;;
4198;SDS011;2113;50.946;14.610;2023-05-07T00:48:19;28.15;;;12.70;;
4198;SDS011;2113;50.946;14.610;2023-05-07T00:50:47;20.23;;;10.98;;
4198;SDS011;2113;50.946;14.610;2023-05-07T00:53:16;25.15;;;12.63;;
4198;SDS011;2113;50.946;14.610;2023-05-07T00:55:44;23.73;;;12.60;;
4198;SDS011;2113;50.946;14.610;2023-05-07T00:58:12;23.83;;;12.40;;
4198;SDS011;2113;50.946;14.610;2023-05-07T01:00:42;25.50;;;14.30;;
4198;SDS011;2113;50.946;14.610;2023-05-07T01:03:10;25.67;;;13.23;;
4198;SDS011;2113;50.946;14.610;2023-05-07T01:05:39;30.67;;;13.70;;
4198;SDS011;2113;50.946;14.610;2023-05-07T01:08:09;25.17;;;12.85;;
4198;SDS011;2113;50.946;14.610;2023-05-07T01:10:39;26.13;;;12.32;;
4198;SDS011;2113;50.946;14.610;2023-05-07T01:13:09;26.88;;;14.20;;
4198;SDS011;2113;50.946;14.610;2023-05-07T01:15:38;23.40;;;11.85;;
4198;SDS011;2113;50.946;14.610;2023-05-07T01:18:09;19.27;;;10.38;;
4198;SDS011;2113;50.946;14.610;2023-05-07T01:20:37;18.92;;;9.50;;
4198;SDS011;2113;50.946;14.610;2023-05-07T01:23:08;17.20;;;9.13;;
4198;SDS011;2113;50.946;14.610;2023-05-07T01:25:38;18.75;;;10.18;;
4198;SDS011;2113;50.946;14.610;2023-05-07T01:28:08;15.57;;;8.68;;
4198;SDS011;2113;50.946;14.610;2023-05-07T01:30:38;24.10;;;11.00;;
4198;SDS011;2113;50.946;14.610;2023-05-07T01:33:13;23.15;;;10.40;;
4198;SDS011;2113;50.946;14.610;2023-05-07T01:35:43;25.27;;;12.32;;
4198;SDS011;2113;50.946;14.610;2023-05-07T01:38:16;20.20;;;11.10;;
4198;SDS011;2113;50.946;14.610;2023-05-07T01:40:46;22.55;;;10.77;;
4198;SDS011;2113;50.946;14.610;2023-05-07T01:43:15;29.35;;;11.02;;
4198;SDS011;2113;50.946;14.610;2023-05-07T01:45:43;39.92;;;12.05;;
4198;SDS011;2113;50.946;14.610;2023-05-07T01:48:12;31.00;;;12.20;;
4198;SDS011;2113;50.946;14.610;2023-05-07T01:50:42;45.00;;;12.20;;
4198;SDS011;2113;50.946;14.610;2023-05-07T01:53:10;49.90;;;13.10;;
4198;SDS011;2113;50.946;14.610;2023-05-07T01:55:41;36.13;;;13.93;;
4198;SDS011;2113;50.946;14.610;2023-05-07T01:58:09;41.50;;;12.65;;
4198;SDS011;2113;50.946;14.610;2023-05-07T02:00:37;20.00;;;11.38;;
4198;SDS011;2113;50.946;14.610;2023-05-07T02:03:06;19.67;;;11.27;;
4198;SDS011;2113;50.946;14.610;2023-05-07T02:05:43;29.65;;;13.38;;
4198;SDS011;2113;50.946;14.610;2023-05-07T02:08:21;37.00;;;12.70;;
4198;SDS011;2113;50.946;14.610;2023-05-07T02:10:51;24.98;;;11.93;;
4198;SDS011;2113;50.946;14.610;2023-05-07T02:13:20;20.48;;;11.25;;
4198;SDS011;2113;50.946;14.610;2023-05-07T02:15:51;22.85;;;10.65;;
4198;SDS011;2113;50.946;14.610;2023-05-07T02:18:21;19.40;;;10.35;;
4198;SDS011;2113;50.946;14.610;2023-05-07T02:20:49;20.75;;;11.02;;
4198;SDS011;2113;50.946;14.610;2023-05-07T02:23:18;22.40;;;12.07;;
4198;SDS011;2113;50.946;14.610;2023-05-07T02:25:46;28.67;;;10.95;;
4198;SDS011;2113;50.946;14.610;2023-05-07T02:28:16;28.60;;;13.07;;
4198;SDS011;2113;50.946;14.610;2023-05-07T02:30:50;39.88;;;11.27;;
4198;SDS011;2113;50.946;14.610;2023-05-07T02:33:19;23.02;;;10.93;;
4198;SDS011;2113;50.946;14.610;2023-05-07T02:35:47;39.97;;;11.35;;
4198;SDS011;2113;50.946;14.610;2023-05-07T02:38:16;24.10;;;11.68;;
4198;SDS011;2113;50.946;14.610;2023-05-07T02:40:44;24.52;;;12.20;;
4198;SDS011;2113;50.946;14.610;2023-05-07T02:43:13;29.98;;;11.80;;
4198;SDS011;2113;50.946;14.610;2023-05-07T02:45:45;24.27;;;13.65;;
4198;SDS011;2113;50.946;14.610;2023-05-07T02:48:15;23.45;;;10.85;;
4198;SDS011;2113;50.946;14.610;2023-05-07T02:50:43;28.80;;;11.52;;
4198;SDS011;2113;50.946;14.610;2023-05-07T02:53:13;19.98;;;10.02;;
4198;SDS011;2113;50.946;14.610;2023-05-07T02:55:41;22.95;;;11.20;;
4198;SDS011;2113;50.946;14.610;2023-05-07T02:58:09;20.75;;;11.25;;
4198;SDS011;2113;50.946;14.610;2023-05-07T03:00:39;24.38;;;12.60;;
4198;SDS011;2113;50.946;14.610;2023-05-07T03:03:19;27.35;;;12.75;;
4198;SDS011;2113;50.946;14.610;2023-05-07T03:05:48;38.05;;;12.80;;
4198;SDS011;2113;50.946;14.610;2023-05-07T03:08:16;31.95;;;14.90;;
4198;SDS011;2113;50.946;14.610;2023-05-07T03:10:44;35.45;;;15.05;;
4198;SDS011;2113;50.946;14.610;2023-05-07T03:13:12;53.42;;;16.17;;
4198;SDS011;2113;50.946;14.610;2023-05-07T03:15:41;49.33;;;14.85;;
4198;SDS011;2113;50.946;14.610;2023-05-07T03:18:09;30.77;;;13.68;;
4198;SDS011;2113;50.946;14.610;2023-05-07T03:20:39;32.22;;;12.80;;
4198;SDS011;2113;50.946;14.610;2023-05-07T03:23:08;31.35;;;14.93;;
4198;SDS011;2113;50.946;14.610;2023-05-07T03:25:36;38.70;;;14.43;;
4198;SDS011;2113;50.946;14.610;2023-05-07T03:28:04;39.67;;;14.27;;
4198;SDS011;2113;50.946;14.610;2023-05-07T03:30:39;36.90;;;14.90;;
4198;SDS011;2113;50.946;14.610;2023-05-07T03:33:07;27.15;;;14.18;;
4198;SDS011;2113;50.946;14.610;2023-05-07T03:35:36;25.73;;;13.60;;
4198;SDS011;2113;50.946;14.610;2023-05-07T03:38:06;27.05;;;13.23;;
4198;SDS011;2113;50.946;14.610;2023-05-07T03:40:36;29.58;;;13.18;;
4198;SDS011;2113;50.946;14.610;2023-05-07T03:43:05;34.10;;;13.45;;
4198;SDS011;2113;50.946;14.610;2023-05-07T03:45:36;23.08;;;11.57;;
4198;SDS011;2113;50.946;14.610;2023-05-07T03:48:12;36.92;;;14.90;;
4198;SDS011;2113;50.946;14.610;2023-05-07T03:50:41;31.95;;;12.88;;
4198;SDS011;2113;50.946;14.610;2023-05-07T03:53:11;44.33;;;13.77;;
4198;SDS011;2113;50.946;14.610;2023-05-07T03:55:40;23.55;;;11.93;;
4198;SDS011;2113;50.946;14.610;2023-05-07T03:58:08;24.60;;;12.15;;
4198;SDS011;2113;50.946;14.610;2023-05-07T04:00:36;28.08;;;15.20;;
4198;SDS011;2113;50.946;14.610;2023-05-07T04:03:33;28.65;;;15.05;;
4198;SDS011;2113;50.946;14.610;2023-05-07T04:06:01;35.97;;;16.02;;
4198;SDS011;2113;50.946;14.610;2023-05-07T04:08:34;30.88;;;16.60;;
4198;SDS011;2113;50.946;14.610;2023-05-07T04:11:03;34.65;;;16.98;;
4198;SDS011;2113;50.946;14.610;2023-05-07T04:13:34;28.67;;;14.90;;
4198;SDS011;2113;50.946;14.610;2023-05-07T04:16:05;29.45;;;17.50;;
4198;SDS011;2113;50.946;14.610;2023-05-07T04:18:35;28.80;;;15.93;;
4198;SDS011;2113;50.946;14.610;2023-05-07T04:21:04;22.58;;;13.95;;
4198;SDS011;2113;50.946;14.610;2023-05-07T04:23:37;30.00;;;15.77;;
4198;SDS011;2113;50.946;14.610;2023-05-07T04:26:09;27.95;;;15.55;;
4198;SDS011;2113;50.946;14.610;2023-05-07T04:28:41;24.13;;;13.88;;
4198;SDS011;2113;50.946;14.610;2023-05-07T04:31:09;30.35;;;15.18;;
4198;SDS011;2113;50.946;14.610;2023-05-07T04:33:39;27.77;;;15.40;;
4198;SDS011;2113;50.946;14.610;2023-05-07T04:36:11;28.17;;;15.65;;
4198;SDS011;2113;50.946;14.610;2023-05-07T04:38:48;81.45;;;17.90;;
4198;SDS011;2113;50.946;14.610;2023-05-07T04:41:18;37.38;;;16.83;;
4198;SDS011;2113;50.946;14.610;2023-05-07T04:43:47;45.42;;;16.90;;
4198;SDS011;2113;50.946;14.610;2023-05-07T04:46:18;44.58;;;17.10;;
4198;SDS011;2113;50.946;14.610;2023-05-07T04:48:48;45.05;;;17.98;;
4198;SDS011;2113;50.946;14.610;2023-05-07T04:51:16;49.28;;;17.00;;
4198;SDS011;2113;50.946;14.610;2023-05-07T04:53:44;58.85;;;15.52;;
4198;SDS011;2113;50.946;14.610;2023-05-07T04:56:15;72.97;;;16.35;;
4198;SDS011;2113;50.946;14.610;2023-05-07T04:58:44;69.13;;;19.23;;
4198;SDS011;2113;50.946;14.610;2023-05-07T05:01:15;44.53;;;15.10;;
4198;SDS011;2113;50.946;14.610;2023-05-07T05:03:43;46.65;;;14.70;;
4198;SDS011;2113;50.946;14.610;2023-05-07T05:06:12;62.38;;;17.95;;
4198;SDS011;2113;50.946;14.610;2023-05-07T05:08:40;33.55;;;17.35;;
4198;SDS011;2113;50.946;14.610;2023-05-07T05:11:09;35.90;;;16.13;;
4198;SDS011;2113;50.946;14.610;2023-05-07T05:13:39;27.38;;;14.25;;
4198;SDS011;2113;50.946;14.610;2023-05-07T05:16:13;35.25;;;14.52;;
4198;SDS011;2113;50.946;14.610;2023-05-07T05:18:41;43.83;;;16.85;;
4198;SDS011;2113;50.946;14.610;2023-05-07T05:21:12;34.45;;;15.65;;
4198;SDS011;2113;50.946;14.610;2023-05-07T05:23:41;24.90;;;13.25;;
4198;SDS011;2113;50.946;14.610;2023-05-07T05:26:11;33.53;;;15.30;;
4198;SDS011;2113;50.946;14.610;2023-05-07T05:28:42;29.10;;;15.23;;
4198;SDS011;2113;50.946;14.610;2023-05-07T05:31:11;27.20;;;13.63;;
4198;SDS011;2113;50.946;14.610;2023-05-07T05:33:39;25.35;;;12.07;;
4198;SDS011;2113;50.946;14.610;2023-05-07T05:36:09;25.48;;;13.77;;
4198;SDS011;2113;50.946;14.610;2023-05-07T05:38:39;22.13;;;13.20;;
4198;SDS011;2113;50.946;14.610;2023-05-07T05:41:08;24.90;;;13.77;;
4198;SDS011;2113;50.946;14.610;2023-05-07T05:43:36;21.38;;;11.57;;
4198;SDS011;2113;50.946;14.610;2023-05-07T05:46:08;18.13;;;11.13;;
4198;SDS011;2113;50.946;14.610;2023-05-07T05:48:39;24.23;;;12.25;;
4198;SDS011;2113;50.946;14.610;2023-05-07T05:51:09;21.98;;;12.57;;
4198;SDS011;2113;50.946;14.610;2023-05-07T05:53:38;17.45;;;11.65;;
4198;SDS011;2113;50.946;14.610;2023-05-07T05:56:06;15.80;;;10.68;;
4198;SDS011;2113;50.946;14.610;2023-05-07T05:58:36;24.15;;;13.45;;
4198;SDS011;2113;50.946;14.610;2023-05-07T06:01:06;19.70;;;11.93;;
4198;SDS011;2113;50.946;14.610;2023-05-07T06:03:37;22.00;;;14.18;;
4198;SDS011;2113;50.946;14.610;2023-05-07T06:06:12;20.15;;;11.52;;
4198;SDS011;2113;50.946;14.610;2023-05-07T06:08:42;18.08;;;10.68;;
4198;SDS011;2113;50.946;14.610;2023-05-07T06:11:14;17.08;;;11.55;;
4198;SDS011;2113;50.946;14.610;2023-05-07T06:13:45;15.27;;;9.93;;
4198;SDS011;2113;50.946;14.610;2023-05-07T06:16:13;15.63;;;10.10;;
4198;SDS011;2113;50.946;14.610;2023-05-07T06:18:44;18.17;;;10.85;;
4198;SDS011;2113;50.946;14.610;2023-05-07T06:21:15;16.75;;;10.77;;
4198;SDS011;2113;50.946;14.610;2023-05-07T06:23:43;19.60;;;11.65;;
4198;SDS011;2113;50.946;14.610;2023-05-07T06:26:11;24.23;;;14.65;;
4198;SDS011;2113;50.946;14.610;2023-05-07T06:28:42;21.85;;;16.08;;
4198;SDS011;2113;50.946;14.610;2023-05-07T06:31:13;16.33;;;11.80;;
4198;SDS011;2113;50.946;14.610;2023-05-07T06:33:50;16.25;;;10.18;;
4198;SDS011;2113;50.946;14.610;2023-05-07T06:36:22;11.15;;;7.35;;
4198;SDS011;2113;50.946;14.610;2023-05-07T06:38:54;13.55;;;9.10;;
4198;SDS011;2113;50.946;14.610;2023-05-07T06:41:22;12.60;;;9.13;;
4198;SDS011;2113;50.946;14.610;2023-05-07T06:43:51;11.95;;;8.40;;
4198;SDS011;2113;50.946;14.610;2023-05-07T06:49:45;13.05;;;7.53;;
4198;SDS011;2113;50.946;14.610;2023-05-07T06:52:16;12.30;;;8.73;;
4198;SDS011;2113;50.946;14.610;2023-05-07T06:54:45;16.70;;;9.65;;
4198;SDS011;2113;50.946;14.610;2023-05-07T06:57:16;16.85;;;9.73;;
4198;SDS011;2113;50.946;14.610;2023-05-07T06:59:44;15.93;;;10.65;;
4198;SDS011;2113;50.946;14.610;2023-05-07T07:02:13;20.23;;;11.60;;
4198;SDS011;2113;50.946;14.610;2023-05-07T07:04:45;14.90;;;9.93;;
4198;SDS011;2113;50.946;14.610;2023-05-07T07:07:15;16.10;;;10.98;;
4198;SDS011;2113;50.946;14.610;2023-05-07T07:09:46;14.30;;;10.40;;
4198;SDS011;2113;50.946;14.610;2023-05-07T07:12:17;19.30;;;11.70;;
4198;SDS011;2113;50.946;14.610;2023-05-07T07:14:45;22.00;;;12.90;;
4198;SDS011;2113;50.946;14.610;2023-05-07T07:17:13;18.48;;;11.30;;
4198;SDS011;2113;50.946;14.610;2023-05-07T07:19:42;24.02;;;13.20;;
4198;SDS011;2113;50.946;14.610;2023-05-07T07:22:12;22.27;;;13.20;;
4198;SDS011;2113;50.946;14.610;2023-05-07T07:24:40;21.58;;;12.45;;
4198;SDS011;2113;50.946;14.610;2023-05-07T07:27:11;21.00;;;11.27;;
4198;SDS011;2113;50.946;14.610;2023-05-07T07:29:39;22.13;;;11.13;;
4198;SDS011;2113;50.946;14.610;2023-05-07T07:32:07;16.38;;;10.27;;
4198;SDS011;2113;50.946;14.610;2023-05-07T07:34:36;18.95;;;11.15;;
4198;SDS011;2113;50.946;14.610;2023-05-07T07:37:05;17.67;;;11.02;;
4198;SDS011;2113;50.946;14.610;2023-05-07T07:39:37;18.95;;;11.23;;
4198;SDS011;2113;50.946;14.610;2023-05-07T07:42:07;18.17;;;11.25;;
4198;SDS011;2113;50.946;14.610;2023-05-07T07:44:37;19.05;;;11.73;;
4198;SDS011;2113;50.946;14.610;2023-05-07T07:47:08;20.08;;;11.80;;
4198;SDS011;2113;50.946;14.610;2023-05-07T07:49:37;19.25;;;11.88;;
4198;SDS011;2113;50.946;14.610;2023-05-07T07:52:07;22.33;;;13.10;;
4198;SDS011;2113;50.946;14.610;2023-05-07T07:54:38;18.02;;;11.55;;
4198;SDS011;2113;50.946;14.610;2023-05-07T07:57:07;20.85;;;12.38;;
4198;SDS011;2113;50.946;14.610;2023-05-07T07:59:36;22.08;;;11.80;;
4198;SDS011;2113;50.946;14.610;2023-05-07T08:02:04;15.68;;;10.63;;
4198;SDS011;2113;50.946;14.610;2023-05-07T08:04:34;20.10;;;11.40;;
4198;SDS011;2113;50.946;14.610;2023-05-07T08:07:07;17.85;;;10.65;;
4198;SDS011;2113;50.946;14.610;2023-05-07T08:09:42;19.10;;;11.93;;
4198;SDS011;2113;50.946;14.610;2023-05-07T08:12:12;15.60;;;10.52;;
4198;SDS011;2113;50.946;14.610;2023-05-07T08:14:42;14.88;;;10.18;;
4198;SDS011;2113;50.946;14.610;2023-05-07T08:17:12;14.80;;;10.05;;
4198;SDS011;2113;50.946;14.610;2023-05-07T08:19:44;17.95;;;10.55;;
4198;SDS011;2113;50.946;14.610;2023-05-07T08:22:14;14.40;;;9.27;;
4198;SDS011;2113;50.946;14.610;2023-05-07T08:24:46;21.20;;;10.07;;
4198;SDS011;2113;50.946;14.610;2023-05-07T08:27:14;18.88;;;10.10;;
4198;SDS011;2113;50.946;14.610;2023-05-07T08:29:43;15.43;;;9.10;;
4198;SDS011;2113;50.946;14.610;2023-05-07T08:32:16;15.50;;;8.27;;
4198;SDS011;2113;50.946;14.610;2023-05-07T08:34:44;14.20;;;9.23;;
4198;SDS011;2113;50.946;14.610;2023-05-07T08:37:13;14.48;;;9.43;;
4198;SDS011;2113;50.946;14.610;2023-05-07T08:39:41;18.85;;;10.13;;
4198;SDS011;2113;50.946;14.610;2023-05-07T08:42:18;13.98;;;8.98;;
4198;SDS011;2113;50.946;14.610;2023-05-07T08:44:48;14.00;;;9.82;;
4198;SDS011;2113;50.946;14.610;2023-05-07T08:47:21;17.83;;;10.48;;
4198;SDS011;2113;50.946;14.610;2023-05-07T08:49:59;12.30;;;8.55;;
4198;SDS011;2113;50.946;14.610;2023-05-07T08:52:28;15.23;;;9.63;;
4198;SDS011;2113;50.946;14.610;2023-05-07T08:54:57;15.02;;;9.75;;
4198;SDS011;2113;50.946;14.610;2023-05-07T08:57:28;18.77;;;12.70;;
4198;SDS011;2113;50.946;14.610;2023-05-07T08:59:56;17.67;;;10.35;;
4198;SDS011;2113;50.946;14.610;2023-05-07T09:02:25;12.98;;;9.77;;
4198;SDS011;2113;50.946;14.610;2023-05-07T09:04:54;13.25;;;8.82;;
4198;SDS011;2113;50.946;14.610;2023-05-07T09:07:23;12.20;;;9.02;;
4198;SDS011;2113;50.946;14.610;2023-05-07T09:09:52;13.70;;;9.27;;
4198;SDS011;2113;50.946;14.610;2023-05-07T09:12:21;13.25;;;8.52;;
4198;SDS011;2113;50.946;14.610;2023-05-07T09:14:51;21.63;;;11.50;;
4198;SDS011;2113;50.946;14.610;2023-05-07T09:17:20;13.98;;;9.90;;
4198;SDS011;2113;50.946;14.610;2023-05-07T09:19:48;12.00;;;9.25;;
4198;SDS011;2113;50.946;14.610;2023-05-07T09:22:17;10.55;;;8.05;;
4198;SDS011;2113;50.946;14.610;2023-05-07T09:25:06;11.38;;;8.57;;
4198;SDS011;2113;50.946;14.610;2023-05-07T09:27:37;9.95;;;7.00;;
4198;SDS011;2113;50.946;14.610;2023-05-07T09:30:08;11.00;;;6.97;;
4198;SDS011;2113;50.946;14.610;2023-05-07T09:32:37;9.25;;;6.30;;
4198;SDS011;2113;50.946;14.610;2023-05-07T09:35:14;11.82;;;7.70;;
4198;SDS011;2113;50.946;14.610;2023-05-07T09:37:47;10.68;;;7.60;;
4198;SDS011;2113;50.946;14.610;2023-05-07T09:40:20;11.15;;;7.93;;
4198;SDS011;2113;50.946;14.610;2023-05-07T09:42:51;12.18;;;7.68;;
4198;SDS011;2113;50.946;14.610;2023-05-07T09:45:24;12.52;;;8.05;;
4198;SDS011;2113;50.946;14.610;2023-05-07T09:47:53;11.25;;;7.22;;
4198;SDS011;2113;50.946;14.610;2023-05-07T09:50:25;10.10;;;7.88;;
4198;SDS011;2113;50.946;14.610;2023-05-07T09:52:55;11.77;;;8.00;;
4198;SDS011;2113;50.946;14.610;2023-05-07T09:55:25;10.77;;;8.05;;
4198;SDS011;2113;50.946;14.610;2023-05-07T09:57:53;12.50;;;7.75;;
4198;SDS011;2113;50.946;14.610;2023-05-07T10:00:24;8.88;;;5.95;;
4198;SDS011;2113;50.946;14.610;2023-05-07T10:03:03;15.38;;;8.20;;
4198;SDS011;2113;50.946;14.610;2023-05-07T10:05:44;8.73;;;6.50;;
4198;SDS011;2113;50.946;14.610;2023-05-07T10:08:14;13.35;;;8.65;;
4198;SDS011;2113;50.946;14.610;2023-05-07T10:10:45;10.90;;;7.20;;
4198;SDS011;2113;50.946;14.610;2023-05-07T10:13:19;10.38;;;7.22;;
4198;SDS011;2113;50.946;14.610;2023-05-07T10:15:51;10.70;;;7.00;;
4198;SDS011;2113;50.946;14.610;2023-05-07T10:18:21;9.88;;;7.32;;
4198;SDS011;2113;50.946;14.610;2023-05-07T10:21:02;8.90;;;6.97;;
4198;SDS011;2113;50.946;14.610;2023-05-07T10:23:35;8.95;;;6.53;;
4198;SDS011;2113;50.946;14.610;2023-05-07T10:26:07;12.05;;;7.28;;
4198;SDS011;2113;50.946;14.610;2023-05-07T10:28:38;14.05;;;7.72;;
4198;SDS011;2113;50.946;14.610;2023-05-07T10:31:18;10.35;;;6.70;;
4198;SDS011;2113;50.946;14.610;2023-05-07T10:34:02;10.05;;;7.15;;
4198;SDS011;2113;50.946;14.610;2023-05-07T10:36:37;9.32;;;7.00;;
4198;SDS011;2113;50.946;14.610;2023-05-07T10:39:07;8.80;;;6.70;;
4198;SDS011;2113;50.946;14.610;2023-05-07T10:41:37;9.50;;;6.80;;
4198;SDS011;2113;50.946;14.610;2023-05-07T10:44:06;12.27;;;7.90;;
4198;SDS011;2113;50.946;14.610;2023-05-07T10:46:37;10.85;;;8.60;;
4198;SDS011;2113;50.946;14.610;2023-05-07T10:49:19;12.88;;;7.38;;
4198;SDS011;2113;50.946;14.610;2023-05-07T10:52:15;10.80;;;7.40;;
4198;SDS011;2113;50.946;14.610;2023-05-07T10:55:19;10.13;;;6.65;;
4198;SDS011;2113;50.946;14.610;2023-05-07T10:58:22;13.90;;;8.10;;
4198;SDS011;2113;50.946;14.610;2023-05-07T11:01:07;8.38;;;6.40;;
4198;SDS011;2113;50.946;14.610;2023-05-07T11:09:54;7.40;;;5.93;;
4198;SDS011;2113;50.946;14.610;2023-05-07T11:12:54;12.45;;;7.30;;
4198;SDS011;2113;50.946;14.610;2023-05-07T11:15:40;9.88;;;6.43;;
4198;SDS011;2113;50.946;14.610;2023-05-07T11:18:45;9.30;;;7.82;;
4198;SDS011;2113;50.946;14.610;2023-05-07T11:24:24;7.22;;;5.30;;
4198;SDS011;2113;50.946;14.610;2023-05-07T11:26:58;8.35;;;6.18;;
4198;SDS011;2113;50.946;14.610;2023-05-07T11:29:28;6.88;;;5.15;;
4198;SDS011;2113;50.946;14.610;2023-05-07T11:32:04;8.07;;;6.35;;
4198;SDS011;2113;50.946;14.610;2023-05-07T11:34:39;9.57;;;6.90;;
4198;SDS011;2113;50.946;14.610;2023-05-07T11:37:10;11.80;;;7.10;;
4198;SDS011;2113;50.946;14.610;2023-05-07T11:40:03;8.20;;;6.55;;
4198;SDS011;2113;50.946;14.610;2023-05-07T11:42:34;6.90;;;5.15;;
4198;SDS011;2113;50.946;14.610;2023-05-07T11:45:05;7.57;;;5.93;;
4198;SDS011;2113;50.946;14.610;2023-05-07T11:47:35;8.30;;;5.75;;
4198;SDS011;2113;50.946;14.610;2023-05-07T11:50:07;8.35;;;5.40;;
4198;SDS011;2113;50.946;14.610;2023-05-07T11:52:38;10.25;;;5.40;;
4198;SDS011;2113;50.946;14.610;2023-05-07T11:55:07;10.35;;;5.72;;
4198;SDS011;2113;50.946;14.610;2023-05-07T11:57:36;5.72;;;4.32;;
4198;SDS011;2113;50.946;14.610;2023-05-07T12:00:06;6.60;;;5.57;;
4198;SDS011;2113;50.946;14.610;2023-05-07T12:02:39;7.35;;;5.38;;
4198;SDS011;2113;50.946;14.610;2023-05-07T12:05:08;7.35;;;5.32;;
4198;SDS011;2113;50.946;14.610;2023-05-07T12:07:38;7.72;;;4.68;;
4198;SDS011;2113;50.946;14.610;2023-05-07T12:10:07;8.02;;;5.88;;
4198;SDS011;2113;50.946;14.610;2023-05-07T12:12:39;7.05;;;4.30;;
4198;SDS011;2113;50.946;14.610;2023-05-07T12:15:09;6.97;;;4.97;;
4198;SDS011;2113;50.946;14.610;2023-05-07T12:17:38;8.50;;;5.15;;
4198;SDS011;2113;50.946;14.610;2023-05-07T12:20:08;6.63;;;5.30;;
4198;SDS011;2113;50.946;14.610;2023-05-07T12:22:39;5.93;;;4.95;;
4198;SDS011;2113;50.946;14.610;2023-05-07T12:25:08;7.55;;;5.32;;
4198;SDS011;2113;50.946;14.610;2023-05-07T12:27:38;8.55;;;5.07;;
4198;SDS011;2113;50.946;14.610;2023-05-07T12:30:09;9.90;;;5.03;;
4198;SDS011;2113;50.946;14.610;2023-05-07T12:32:38;8.23;;;4.80;;
4198;SDS011;2113;50.946;14.610;2023-05-07T12:35:07;6.85;;;4.43;;
4198;SDS011;2113;50.946;14.610;2023-05-07T12:37:36;5.53;;;3.97;;
4198;SDS011;2113;50.946;14.610;2023-05-07T12:40:06;6.45;;;4.72;;
4198;SDS011;2113;50.946;14.610;2023-05-07T12:42:36;8.70;;;4.65;;
4198;SDS011;2113;50.946;14.610;2023-05-07T12:45:08;7.57;;;4.75;;
4198;SDS011;2113;50.946;14.610;2023-05-07T12:47:38;5.78;;;4.50;;
4198;SDS011;2113;50.946;14.610;2023-05-07T12:50:07;10.60;;;4.97;;
4198;SDS011;2113;50.946;14.610;2023-05-07T12:52:35;10.73;;;4.47;;
4198;SDS011;2113;50.946;14.610;2023-05-07T12:55:08;6.20;;;4.50;;
4198;SDS011;2113;50.946;14.610;2023-05-07T12:57:40;6.93;;;4.40;;
4198;SDS011;2113;50.946;14.610;2023-05-07T13:00:09;6.22;;;4.10;;
4198;SDS011;2113;50.946;14.610;2023-05-07T13:02:38;6.25;;;3.72;;
4198;SDS011;2113;50.946;14.610;2023-05-07T13:05:08;8.10;;;4.03;;
4198;SDS011;2113;50.946;14.610;2023-05-07T13:07:36;7.85;;;4.28;;
4198;SDS011;2113;50.946;14.610;2023-05-07T13:10:07;6.13;;;4.15;;
4198;SDS011;2113;50.946;14.610;2023-05-07T13:12:37;6.18;;;4.40;;
4198;SDS011;2113;50.946;14.610;2023-05-07T13:15:06;6.22;;;4.45;;
4198;SDS011;2113;50.946;14.610;2023-05-07T13:17:36;5.40;;;3.45;;
4198;SDS011;2113;50.946;14.610;2023-05-07T13:20:04;6.35;;;4.22;;
4198;SDS011;2113;50.946;14.610;2023-05-07T13:22:34;8.00;;;4.25;;
4198;SDS011;2113;50.946;14.610;2023-05-07T13:25:03;5.80;;;3.95;;
4198;SDS011;2113;50.946;14.610;2023-05-07T13:27:33;5.15;;;3.30;;
4198;SDS011;2113;50.946;14.610;2023-05-07T13:30:04;5.80;;;3.45;;
4198;SDS011;2113;50.946;14.610;2023-05-07T13:32:33;5.55;;;3.60;;
4198;SDS011;2113;50.946;14.610;2023-05-07T13:35:02;7.70;;;4.15;;
4198;SDS011;2113;50.946;14.610;2023-05-07T13:37:31;7.20;;;3.50;;
4198;SDS011;2113;50.946;14.610;2023-05-07T13:39:59;6.63;;;5.22;;
4198;SDS011;2113;50.946;14.610;2023-05-07T13:42:30;6.80;;;5.28;;
4198;SDS011;2113;50.946;14.610;2023-05-07T13:44:59;10.20;;;5.55;;
4198;SDS011;2113;50.946;14.610;2023-05-07T13:47:30;6.70;;;5.05;;
4198;SDS011;2113;50.946;14.610;2023-05-07T13:49:58;8.75;;;6.13;;
4198;SDS011;2113;50.946;14.610;2023-05-07T13:52:27;9.50;;;6.32;;
4198;SDS011;2113;50.946;14.610;2023-05-07T13:54:55;9.55;;;6.35;;
4198;SDS011;2113;50.946;14.610;2023-05-07T13:57:25;9.18;;;7.05;;
4198;SDS011;2113;50.946;14.610;2023-05-07T13:59:54;9.70;;;7.53;;
4198;SDS011;2113;50.946;14.610;2023-05-07T14:02:23;10.13;;;7.75;;
4198;SDS011;2113;50.946;14.610;2023-05-07T14:04:52;9.88;;;7.65;;
4198;SDS011;2113;50.946;14.610;2023-05-07T14:07:20;8.95;;;6.70;;
4198;SDS011;2113;50.946;14.610;2023-05-07T14:09:48;12.30;;;6.25;;
4198;SDS011;2113;50.946;14.610;2023-05-07T14:12:16;8.48;;;6.55;;
4198;SDS011;2113;50.946;14.610;2023-05-07T14:14:45;8.43;;;6.70;;
4198;SDS011;2113;50.946;14.610;2023-05-07T14:17:16;8.57;;;6.88;;
4198;SDS011;2113;50.946;14.610;2023-05-07T14:19:46;10.82;;;6.40;;
4198;SDS011;2113;50.946;14.610;2023-05-07T14:22:14;7.97;;;5.75;;
4198;SDS011;2113;50.946;14.610;2023-05-07T14:24:42;8.60;;;6.38;;
4198;SDS011;2113;50.946;14.610;2023-05-07T14:27:19;8.88;;;5.93;;
4198;SDS011;2113;50.946;14.610;2023-05-07T14:29:47;7.30;;;5.90;;
4198;SDS011;2113;50.946;14.610;2023-05-07T14:32:17;9.65;;;6.10;;
4198;SDS011;2113;50.946;14.610;2023-05-07T14:34:47;8.57;;;6.40;;
4198;SDS011;2113;50.946;14.610;2023-05-07T14:37:15;10.18;;;6.22;;
4198;SDS011;2113;50.946;14.610;2023-05-07T14:39:46;12.15;;;6.65;;
4198;SDS011;2113;50.946;14.610;2023-05-07T14:42:16;9.25;;;6.93;;
4198;SDS011;2113;50.946;14.610;2023-05-07T14:44:46;9.90;;;6.43;;
4198;SDS011;2113;50.946;14.610;2023-05-07T14:47:15;7.63;;;5.88;;
4198;SDS011;2113;50.946;14.610;2023-05-07T14:49:47;10.52;;;6.95;;
4198;SDS011;2113;50.946;14.610;2023-05-07T14:52:15;7.47;;;6.15;;
4198;SDS011;2113;50.946;14.610;2023-05-07T14:54:45;9.68;;;6.80;;
4198;SDS011;2113;50.946;14.610;2023-05-07T14:57:13;8.68;;;6.80;;
4198;SDS011;2113;50.946;14.610;2023-05-07T14:59:42;12.43;;;8.75;;
4198;SDS011;2113;50.946;14.610;2023-05-07T15:02:11;18.45;;;13.80;;
4198;SDS011;2113;50.946;14.610;2023-05-07T15:04:40;10.25;;;7.43;;
4198;SDS011;2113;50.946;14.610;2023-05-07T15:07:14;9.43;;;7.47;;
4198;SDS011;2113;50.946;14.610;2023-05-07T15:09:43;10.32;;;7.28;;
4198;SDS011;2113;50.946;14.610;2023-05-07T15:12:12;10.60;;;7.80;;
4198;SDS011;2113;50.946;14.610;2023-05-07T15:14:41;11.32;;;7.97;;
4198;SDS011;2113;50.946;14.610;2023-05-07T15:17:10;8.65;;;6.47;;